• Join FlightAware (Why Join?)
  • Login
  • US Flag 
11:16PM EDT


 

Airport Tracker/Info


-or-


 

Live Flight TrackerFlight Track Log ✈ N400PU ✈ 21-Nov-2013 ✈ KFWA - KLAF

Flight Track Log - Related Links

Times and Time Zones

All times are in EST time to prevent confusion due to time zone crossing. See the N400PU flight status page for this flight to view local times or setup timezone preferences in your user account.

Time Position Orientation Groundspeed Altitude Reporting Facility
EST Latitude Longitude Course Direction KTS MPH feet Rate Location/Type
11:51AM 40.8753 -85.4442 248° West 237 273 6,000  Level Chicago Center
11:51AM 40.8628 -85.4850 248° West 237 273 7,000 1,860 Climbing Chicago Center
11:52AM 40.8453 -85.5389 247° West 235 270 7,900 1,200 Climbing Chicago Center
11:52AM 40.8444 -85.5500 264° West 234 269 8,000 60 Climbing Chicago Center
11:53AM 40.8200 -85.6206 245° Southwest 238 274 8,000  Level Chicago Center
11:53AM 40.8169 -85.6367 256° West 244 281 8,000  Level Chicago Center
11:54AM 40.8251 -85.6779 248° West  Level Estimated
11:54AM 40.7939 -85.7069 247° West 248 285 8,000  Level Chicago Center
11:54AM 40.7919 -85.7178 257° West 253 291 8,000  Level Chicago Center
11:55AM 40.7987 -85.7578 246° West  Level FlightAware Approximate
11:55AM 40.7686 -85.7919 247° West 249 287 8,000  Level Chicago Center
11:55AM 40.7664 -85.8044 257° West 244 281 8,000  Level Chicago Center
11:56AM 40.7439 -85.8733 247° West 242 278 8,000  Level Chicago Center
11:56AM 40.7411 -85.8828 249° West 242 278 8,000  Level Chicago Center
11:57AM 40.7172 -85.9583 247° West 247 284 8,000  Level Chicago Center
11:58AM 40.6900 -86.0528 249° West 248 285 8,000  Level Chicago Center
11:58AM 40.6922 -86.0431 73° East 248 285 8,000  Level Chicago Center
11:59AM 40.6653 -86.1347 249° West 246 283 8,000  Level Chicago Center
12:00PM 40.6436 -86.1981 246° West 232 267 8,000  Level Chicago Center
12:00PM 40.6367 -86.2253 251° West 244 281 8,000  Level Chicago Center
12:00PM 40.6394 -86.2178 64° Northeast 248 285 8,000  Level Chicago Center
12:01PM 40.6108 -86.3114 248° West 242 278 8,000  Level Chicago Center
12:01PM 40.6144 -86.3000 67° East 245 282 8,000  Level Chicago Center
12:02PM 40.5853 -86.3892 247° West 242 278 8,000  Level Chicago Center
12:02PM 40.5828 -86.3975 248° West 243 280 8,000  Level Chicago Center
12:03PM 40.5689 -86.4831 258° West 243 280 8,000  Level Chicago Center
12:04PM 40.5667 -86.5661 268° West 248 285 8,000  Level Chicago Center
12:04PM 40.5661 -86.5742 265° West 249 287 8,000 -1,320 Level Chicago Center
12:05PM 40.5633 -86.6589 268° West 241 277 6,700 -1,260 Descending Chicago Center
12:05PM 40.5647 -86.6617 303° West 244 281 6,700 -1,920 Level Chicago Center
12:06PM 40.5642 -86.7439 270° West 242 278 4,800 -1,980 Descending Chicago Center
12:06PM 40.5656 -86.7492 289° West 242 278 4,700 -1,260 Descending Chicago Center
12:07PM 40.5539 -86.8336 260° West 242 278 3,300 -840 Descending Chicago Center
12:08PM 40.5267 -86.9328 250° West 245 282 3,000 -180 Descending Chicago Center
12:09PM 40.5111 -86.9892 250° West 230 265 3,000  Level Chicago Center
12:09PM 40.5069 -87.0089 254° West 237 273 3,000  Level Chicago Center
12:10PM 40.4900 -87.0769 252° West 221 254 3,000  Level Chicago Center
12:11PM 40.4683 -87.1175 235° Southwest 192 221 3,000  Level Chicago Center
12:11PM 40.4486 -87.1169 179° South 212 244 3,000 -120 Level Chicago Center
12:12PM 40.4339 -87.0933 129° Southeast 168 193 2,900  Descending Chicago Center
12:13PM 40.4294 -87.0678 103° East 182 209 3,000 -1,020 Climbing Chicago Center
12:13PM 40.4239 -87.0325 102° East 156 180 1,900 -1,140 Descending Chicago Center
12:14PM 40.4172 -86.9856 101° East 112 129 1,200 -720 Descending Chicago Center